Time;durP1;ratioP1;P1;durP2;ratioP2;P2;SDS_P1;SDS_P2;PMS_P1;PMS_P2;Temp;Humidity;BMP_temperature;BMP_pressure;BME280_temperature;BME280_humidity;BME280_pressure;Samples;Min_cycle;Max_cycle;Signal;HPM_P1;HPM_P2
2023/12/24 00:00:38;;;;;;;2.60;1.30;;;10.20;99.90;;;;;;5053900;28;20029;-55
2023/12/24 00:03:04;;;;;;;6.63;1.30;;;10.20;99.90;;;;;;5053805;28;20040;-56
2023/12/24 00:05:30;;;;;;;3.50;1.10;;;10.20;99.90;;;;;;5053987;28;20047;-55
2023/12/24 00:07:55;;;;;;;3.07;1.00;;;10.20;99.90;;;;;;5053420;28;20474;-56
2023/12/24 00:10:22;;;;;;;5.87;1.13;;;10.20;99.90;;;;;;5053746;28;20047;-55
2023/12/24 00:12:47;;;;;;;2.60;1.33;;;10.20;99.90;;;;;;5053876;28;20039;-55
2023/12/24 00:15:15;;;;;;;6.57;1.10;;;10.20;99.90;;;;;;5036061;28;20028;-52
2023/12/24 00:17:41;;;;;;;3.37;1.00;;;10.20;99.90;;;;;;5053370;28;20041;-54
2023/12/24 00:20:07;;;;;;;2.10;1.23;;;10.20;99.90;;;;;;5053747;28;20033;-55
2023/12/24 00:22:33;;;;;;;4.87;0.97;;;10.30;99.90;;;;;;5053570;28;20063;-55
2023/12/24 00:24:58;;;;;;;2.23;1.03;;;10.30;99.90;;;;;;5053541;28;20029;-53
2023/12/24 00:27:24;;;;;;;2.00;0.73;;;10.30;99.90;;;;;;5053357;28;20075;-55
2023/12/24 00:29:49;;;;;;;5.40;1.73;;;10.30;99.90;;;;;;5035647;28;20025;-53
2023/12/24 00:32:16;;;;;;;1.73;0.80;;;10.20;99.90;;;;;;5035422;28;20037;-55
2023/12/24 00:34:42;;;;;;;8.40;1.53;;;10.30;99.90;;;;;;5035486;28;20036;-55
2023/12/24 00:37:08;;;;;;;6.30;1.00;;;10.30;99.90;;;;;;5035483;28;20032;-54
2023/12/24 00:39:33;;;;;;;3.63;0.93;;;10.30;99.90;;;;;;5052952;28;20044;-55
2023/12/24 00:41:59;;;;;;;2.30;0.90;;;10.30;99.90;;;;;;5052994;28;20052;-55
2023/12/24 00:44:25;;;;;;;4.10;1.53;;;10.30;99.90;;;;;;5053177;28;20024;-55
2023/12/24 00:46:51;;;;;;;4.53;1.10;;;10.30;99.90;;;;;;5053092;28;20024;-55
2023/12/24 00:49:16;;;;;;;1.13;0.70;;;10.30;99.90;;;;;;5052848;28;20054;-56
2023/12/24 00:51:43;;;;;;;5.63;0.90;;;10.30;99.90;;;;;;5035194;28;20137;-51
2023/12/24 00:54:12;;;;;;;6.30;0.90;;;10.30;99.90;;;;;;5035194;28;20408;-54
2023/12/24 00:56:38;;;;;;;2.07;1.10;;;10.40;99.90;;;;;;5035106;28;20032;-55
2023/12/24 00:59:04;;;;;;;6.00;1.30;;;10.30;99.90;;;;;;5034776;28;20033;-57
2023/12/24 01:01:29;;;;;;;3.33;1.13;;;10.30;99.90;;;;;;5034780;28;20047;-55
2023/12/24 01:03:55;;;;;;;3.60;0.90;;;10.30;99.90;;;;;;5034892;28;20079;-55
2023/12/24 01:06:20;;;;;;;4.10;1.00;;;10.30;99.90;;;;;;5018489;28;20116;-53
2023/12/24 01:08:46;;;;;;;5.77;1.23;;;10.30;99.90;;;;;;5034782;28;20040;-56
2023/12/24 01:11:12;;;;;;;3.70;1.00;;;10.40;99.90;;;;;;5034650;28;20045;-55
2023/12/24 01:13:38;;;;;;;2.47;1.30;;;10.40;99.90;;;;;;5034860;28;20033;-55
2023/12/24 01:16:04;;;;;;;4.33;0.87;;;10.40;99.90;;;;;;5034703;28;20044;-54
2023/12/24 01:18:30;;;;;;;3.77;0.83;;;10.40;99.90;;;;;;5052519;28;20573;-54
2023/12/24 01:20:56;;;;;;;4.37;1.03;;;10.40;99.90;;;;;;5051957;28;20060;-55
2023/12/24 01:23:22;;;;;;;4.53;1.60;;;10.40;99.90;;;;;;5052328;28;20375;-55
2023/12/24 01:25:48;;;;;;;3.37;0.90;;;10.50;99.90;;;;;;5034573;28;20029;-54
2023/12/24 01:28:14;;;;;;;8.20;1.87;;;10.40;99.90;;;;;;5034355;28;20234;-55
2023/12/24 01:30:40;;;;;;;3.70;1.30;;;10.40;99.90;;;;;;5034293;28;20033;-56
2023/12/24 01:33:06;;;;;;;3.83;1.83;;;10.40;99.90;;;;;;5052326;28;20141;-56
2023/12/24 01:35:31;;;;;;;2.70;0.90;;;10.40;99.90;;;;;;5052210;28;20037;-56
2023/12/24 01:37:57;;;;;;;4.03;0.97;;;10.40;99.90;;;;;;5052046;28;20078;-56
2023/12/24 01:40:24;;;;;;;6.73;1.30;;;10.40;99.90;;;;;;5034148;28;20041;-54
2023/12/24 01:42:49;;;;;;;1.80;0.80;;;10.40;99.90;;;;;;5051980;28;20036;-54
2023/12/24 01:45:15;;;;;;;3.73;1.27;;;10.40;99.90;;;;;;5034230;28;20553;-55
2023/12/24 01:47:42;;;;;;;3.97;0.87;;;10.40;99.90;;;;;;5051965;28;20036;-55
2023/12/24 01:50:08;;;;;;;7.70;1.70;;;10.40;99.90;;;;;;5052059;28;20389;-55
2023/12/24 01:52:34;;;;;;;2.90;0.90;;;10.30;99.90;;;;;;5034003;28;20114;-55
2023/12/24 01:55:00;;;;;;;3.60;1.10;;;10.40;99.90;;;;;;5034108;28;20041;-55
2023/12/24 01:57:25;;;;;;;4.00;0.90;;;10.40;99.90;;;;;;5051770;28;20394;-55
2023/12/24 01:59:52;;;;;;;3.27;0.80;;;10.30;99.90;;;;;;5033828;28;20029;-55
2023/12/24 02:02:18;;;;;;;2.00;0.60;;;10.40;99.90;;;;;;5051701;28;20401;-55
2023/12/24 02:04:44;;;;;;;5.23;1.77;;;10.40;99.90;;;;;;5034013;28;20033;-55
2023/12/24 02:07:11;;;;;;;4.17;1.20;;;10.40;99.90;;;;;;5017571;28;20021;-55
2023/12/24 02:09:37;;;;;;;3.60;0.67;;;10.40;99.90;;;;;;5033601;28;20025;-54
2023/12/24 02:12:03;;;;;;;2.03;0.80;;;10.40;99.90;;;;;;5033950;28;20367;-55
2023/12/24 02:14:29;;;;;;;2.57;0.90;;;10.40;99.90;;;;;;5034105;28;20033;-51
2023/12/24 02:16:58;;;;;;;3.27;0.77;;;10.50;99.90;;;;;;5033913;28;20029;-51
2023/12/24 02:19:24;;;;;;;2.10;0.60;;;10.40;99.90;;;;;;5033704;28;20498;-54
2023/12/24 02:21:50;;;;;;;3.77;0.67;;;10.50;99.90;;;;;;5034130;28;20392;-54
2023/12/24 02:24:16;;;;;;;1.60;0.93;;;10.50;99.90;;;;;;5052031;28;20604;-55
2023/12/24 02:27:10;;;;;;;3.33;0.70;;;10.50;99.90;;;;;;5051928;28;20032;-54
2023/12/24 02:29:42;;;;;;;5.33;0.90;;;10.50;99.90;;;;;;5033954;28;20109;-54
2023/12/24 02:32:14;;;;;;;2.43;0.60;;;10.50;99.90;;;;;;5036818;28;20167;-51
2023/12/24 02:34:44;;;;;;;2.10;0.40;;;10.50;99.90;;;;;;5056039;28;20017;-54
2023/12/24 02:37:11;;;;;;;1.87;0.40;;;10.50;99.90;;;;;;5056640;28;20071;-52
2023/12/24 02:39:38;;;;;;;4.37;0.70;;;10.50;99.90;;;;;;5038243;28;20033;-54
2023/12/24 02:42:05;;;;;;;1.27;0.50;;;10.40;99.90;;;;;;5056491;28;20059;-54
2023/12/24 02:44:31;;;;;;;4.47;0.63;;;10.30;99.90;;;;;;5039718;28;20029;-54
2023/12/24 02:46:57;;;;;;;3.20;0.60;;;10.30;99.90;;;;;;5039127;28;20500;-55
2023/12/24 02:49:23;;;;;;;1.70;0.67;;;10.20;99.90;;;;;;5038115;28;20033;-57
2023/12/24 02:51:48;;;;;;;1.57;0.57;;;10.10;99.90;;;;;;5037369;28;20033;-52
2023/12/24 02:54:14;;;;;;;1.17;0.40;;;10.10;99.90;;;;;;5037405;28;20029;-55
2023/12/24 02:56:40;;;;;;;3.60;0.50;;;10.00;99.90;;;;;;5037370;28;20032;-55
2023/12/24 02:59:06;;;;;;;5.23;0.67;;;10.00;99.90;;;;;;5037186;28;20034;-55
2023/12/24 03:01:32;;;;;;;2.10;0.50;;;9.90;99.90;;;;;;5037212;28;20036;-55
2023/12/24 03:03:59;;;;;;;1.27;0.50;;;9.80;99.90;;;;;;5037204;28;20124;-55
2023/12/24 03:06:24;;;;;;;1.50;0.50;;;9.80;99.90;;;;;;5054953;28;20029;-55
2023/12/24 03:08:50;;;;;;;2.00;0.60;;;9.70;99.90;;;;;;5036850;28;20545;-56
2023/12/24 03:11:16;;;;;;;1.60;0.57;;;9.60;99.90;;;;;;5054946;28;20025;-55
2023/12/24 03:13:42;;;;;;;1.50;0.80;;;9.60;99.90;;;;;;5037014;28;20036;-55
2023/12/24 03:16:07;;;;;;;1.43;0.80;;;9.50;99.90;;;;;;5054989;28;20037;-55
2023/12/24 03:18:33;;;;;;;1.07;0.60;;;9.50;99.90;;;;;;5036723;28;20029;-55
2023/12/24 03:21:00;;;;;;;3.23;0.90;;;9.50;99.90;;;;;;5036739;28;20493;-54
2023/12/24 03:23:26;;;;;;;0.97;0.50;;;9.50;99.90;;;;;;5054670;28;20032;-55
2023/12/24 03:25:54;;;;;;;6.30;1.83;;;9.40;99.90;;;;;;5054802;28;20021;-56
2023/12/24 03:28:19;;;;;;;3.70;1.10;;;9.40;99.90;;;;;;5054616;28;20040;-55
2023/12/24 03:30:45;;;;;;;3.87;1.00;;;9.40;99.90;;;;;;5036613;28;20021;-56
2023/12/24 03:33:11;;;;;;;1.93;0.87;;;9.40;99.90;;;;;;5054586;28;20033;-55
2023/12/24 03:35:36;;;;;;;2.30;1.00;;;9.40;99.90;;;;;;5036572;28;20033;-55
2023/12/24 03:38:03;;;;;;;0.83;0.47;;;9.40;99.90;;;;;;5036388;28;20029;-55
2023/12/24 03:40:29;;;;;;;0.93;0.83;;;9.40;99.90;;;;;;5054551;28;20079;-55
2023/12/24 03:42:55;;;;;;;1.97;0.50;;;9.40;99.90;;;;;;5035529;28;20033;-55
2023/12/24 03:45:20;;;;;;;2.93;0.67;;;9.40;99.90;;;;;;5036558;28;20440;-56
2023/12/24 03:47:46;;;;;;;0.40;0.40;;;9.40;99.90;;;;;;5054140;28;20028;-56
2023/12/24 03:50:11;;;;;;;1.50;0.50;;;9.40;99.90;;;;;;5054153;28;20021;-56
2023/12/24 03:52:37;;;;;;;1.93;0.50;;;9.40;99.90;;;;;;5036230;28;20490;-55
2023/12/24 03:55:03;;;;;;;0.77;0.47;;;9.40;99.90;;;;;;5036412;28;20029;-53
2023/12/24 03:57:29;;;;;;;0.67;0.40;;;9.40;99.90;;;;;;5054059;28;20025;-55
2023/12/24 03:59:55;;;;;;;1.47;0.50;;;9.50;99.90;;;;;;5036256;28;20028;-52
2023/12/24 04:02:24;;;;;;;0.37;0.30;;;9.50;99.90;;;;;;5035966;28;20037;-55
2023/12/24 04:04:50;;;;;;;0.43;0.40;;;9.50;99.90;;;;;;5053990;28;20028;-54
2023/12/24 04:07:16;;;;;;;0.50;0.40;;;9.60;99.90;;;;;;5053978;28;20054;-55
2023/12/24 04:09:45;;;;;;;0.47;0.33;;;9.60;99.90;;;;;;5036072;28;20025;-55
2023/12/24 04:12:11;;;;;;;1.27;0.30;;;9.60;99.90;;;;;;5035943;28;20047;-54
2023/12/24 04:14:37;;;;;;;0.30;0.30;;;9.60;99.90;;;;;;5035905;28;20025;-55
2023/12/24 04:17:04;;;;;;;0.50;0.30;;;9.60;99.90;;;;;;5035923;28;20497;-56
2023/12/24 04:19:30;;;;;;;0.23;0.23;;;9.60;99.90;;;;;;5035601;28;20135;-53
2023/12/24 04:21:55;;;;;;;0.40;0.30;;;9.60;99.90;;;;;;5035825;28;20533;-56
2023/12/24 04:24:29;;;;;;;0.33;0.30;;;9.60;99.90;;;;;;5035661;28;20547;-56
2023/12/24 04:26:55;;;;;;;0.20;0.20;;;9.60;99.90;;;;;;5035813;28;20092;-56
2023/12/24 04:29:21;;;;;;;0.60;0.30;;;9.60;99.90;;;;;;5035522;28;20401;-54
2023/12/24 04:31:47;;;;;;;0.20;0.20;;;9.60;99.90;;;;;;5035507;28;20025;-56
2023/12/24 04:34:13;;;;;;;1.07;0.50;;;9.60;99.90;;;;;;5035774;28;20481;-56
2023/12/24 04:36:38;;;;;;;1.37;0.80;;;9.60;99.90;;;;;;5053610;28;20056;-55
2023/12/24 04:39:04;;;;;;;0.73;0.40;;;9.60;99.90;;;;;;5035269;28;20060;-56
2023/12/24 04:41:30;;;;;;;0.30;0.30;;;9.60;99.90;;;;;;5035241;28;20025;-55
2023/12/24 04:43:56;;;;;;;0.57;0.40;;;9.60;99.90;;;;;;5035345;28;20037;-55
2023/12/24 04:46:22;;;;;;;0.27;0.20;;;9.60;99.90;;;;;;5035296;28;20409;-56
2023/12/24 04:48:48;;;;;;;0.53;0.30;;;9.60;99.90;;;;;;5035248;28;20440;-55
2023/12/24 04:51:15;;;;;;;0.43;0.23;;;9.60;99.90;;;;;;5035176;28;20025;-56
2023/12/24 04:53:41;;;;;;;0.40;0.30;;;9.60;99.90;;;;;;5035187;28;20029;-52
2023/12/24 04:56:21;;;;;;;0.33;0.20;;;9.70;99.90;;;;;;5034208;28;20034;-56
2023/12/24 04:58:47;;;;;;;0.47;0.30;;;9.70;99.90;;;;;;5034910;28;20025;-56
2023/12/24 05:01:18;;;;;;;0.30;0.17;;;9.70;99.90;;;;;;5034886;28;20101;-53
2023/12/24 05:03:44;;;;;;;0.20;0.17;;;9.70;99.90;;;;;;5052576;28;20097;-56
2023/12/24 05:06:10;;;;;;;0.43;0.30;;;9.70;99.90;;;;;;5052837;28;20104;-54
2023/12/24 05:08:36;;;;;;;0.33;0.20;;;9.70;99.90;;;;;;5034667;28;20039;-56
2023/12/24 05:11:09;;;;;;;0.40;0.10;;;9.70;99.90;;;;;;5034859;28;20040;-55
2023/12/24 05:13:35;;;;;;;0.20;0.20;;;9.70;99.90;;;;;;5034770;28;20036;-56
2023/12/24 05:16:02;;;;;;;0.37;0.20;;;9.70;99.90;;;;;;5034896;28;20552;-55
2023/12/24 05:18:29;;;;;;;0.20;0.20;;;9.70;99.90;;;;;;5052660;28;20104;-56
2023/12/24 05:20:55;;;;;;;0.87;0.30;;;9.70;99.90;;;;;;5035730;28;20379;-56
2023/12/24 05:23:21;;;;;;;0.43;0.13;;;9.70;99.90;;;;;;5035063;28;20056;-55
2023/12/24 05:25:47;;;;;;;0.83;0.20;;;9.70;99.90;;;;;;5018922;28;20056;-53
2023/12/24 05:28:14;;;;;;;0.83;0.30;;;9.70;99.90;;;;;;5052304;28;20040;-55
2023/12/24 05:30:39;;;;;;;1.50;0.20;;;9.60;99.90;;;;;;5052351;28;20021;-52
2023/12/24 05:33:05;;;;;;;0.83;0.10;;;9.60;99.90;;;;;;5052356;28;20032;-56
2023/12/24 05:35:30;;;;;;;0.10;0.10;;;9.60;99.90;;;;;;5052326;28;20037;-52
2023/12/24 05:37:56;;;;;;;0.97;0.20;;;9.60;99.90;;;;;;5052089;28;20029;-54
2023/12/24 05:40:22;;;;;;;0.10;0.10;;;9.60;99.90;;;;;;5052144;28;20367;-55
2023/12/24 05:42:47;;;;;;;0.30;0.20;;;9.60;99.90;;;;;;5051817;28;20048;-55
2023/12/24 05:45:13;;;;;;;0.20;0.20;;;9.60;99.90;;;;;;5052165;28;20121;-53
2023/12/24 05:47:38;;;;;;;0.13;0.10;;;9.60;99.90;;;;;;5051889;28;20033;-56
2023/12/24 05:50:05;;;;;;;1.20;0.20;;;9.60;99.90;;;;;;5052127;28;20040;-56
2023/12/24 05:52:31;;;;;;;0.13;0.10;;;9.60;99.90;;;;;;5052001;28;20043;-51
2023/12/24 05:54:57;;;;;;;0.10;0.10;;;9.60;99.90;;;;;;5052012;28;20111;-52
2023/12/24 05:57:22;;;;;;;0.10;0.10;;;9.60;99.90;;;;;;5051858;28;20030;-54
2023/12/24 05:59:48;;;;;;;0.20;0.20;;;9.60;99.90;;;;;;5051875;28;20040;-54
2023/12/24 06:02:14;;;;;;;0.43;0.23;;;9.60;99.90;;;;;;5051922;28;20071;-55
2023/12/24 06:04:39;;;;;;;0.20;0.07;;;9.60;99.90;;;;;;5051943;28;20116;-55
2023/12/24 06:07:05;;;;;;;2.07;0.23;;;9.60;99.90;;;;;;5051502;28;20029;-55
2023/12/24 06:09:31;;;;;;;0.17;0.13;;;9.60;99.90;;;;;;5051709;28;20208;-56
2023/12/24 06:11:57;;;;;;;1.73;0.50;;;9.70;99.90;;;;;;5051684;28;20028;-55
2023/12/24 06:14:23;;;;;;;0.30;0.20;;;9.60;99.90;;;;;;5051772;28;20129;-56
2023/12/24 06:16:48;;;;;;;2.10;0.87;;;9.60;99.90;;;;;;5051704;28;20367;-55
2023/12/24 06:19:14;;;;;;;0.73;0.37;;;9.70;99.90;;;;;;5051460;28;20033;-55
2023/12/24 06:21:39;;;;;;;1.43;0.30;;;9.70;99.90;;;;;;5051640;28;20041;-55
2023/12/24 06:24:05;;;;;;;0.10;0.10;;;9.70;99.90;;;;;;5051593;28;20112;-55
2023/12/24 06:26:32;;;;;;;0.20;0.20;;;9.70;99.90;;;;;;5051590;28;20029;-54
2023/12/24 06:28:58;;;;;;;0.20;0.20;;;9.70;99.90;;;;;;5051338;28;20037;-55
2023/12/24 06:31:24;;;;;;;0.47;0.17;;;9.70;99.90;;;;;;5051576;28;20375;-55
2023/12/24 06:33:50;;;;;;;0.17;0.17;;;9.70;99.90;;;;;;5051535;28;20059;-55
2023/12/24 06:36:16;;;;;;;0.20;0.20;;;9.70;99.90;;;;;;5051693;28;20035;-54
2023/12/24 06:38:41;;;;;;;0.30;0.20;;;9.70;99.90;;;;;;5051347;28;20025;-54
2023/12/24 06:41:07;;;;;;;1.50;0.40;;;9.70;99.90;;;;;;5051246;28;20398;-55
2023/12/24 06:43:33;;;;;;;0.33;0.30;;;9.70;99.90;;;;;;5051484;28;20029;-57
2023/12/24 06:45:58;;;;;;;0.50;0.30;;;9.70;99.90;;;;;;5051589;28;20029;-57
2023/12/24 06:48:24;;;;;;;0.17;0.17;;;9.70;99.90;;;;;;5051350;28;20017;-56
2023/12/24 06:50:50;;;;;;;0.80;0.20;;;9.70;99.90;;;;;;5051509;28;20045;-56
2023/12/24 06:53:16;;;;;;;0.30;0.20;;;9.70;99.90;;;;;;5051556;28;20021;-56
2023/12/24 06:55:42;;;;;;;1.90;0.40;;;9.80;99.90;;;;;;5051291;28;20036;-55
2023/12/24 06:58:08;;;;;;;0.33;0.20;;;9.80;99.90;;;;;;5051242;28;20029;-57
2023/12/24 07:00:33;;;;;;;0.20;0.20;;;9.80;99.90;;;;;;5051401;28;20457;-55
2023/12/24 07:02:59;;;;;;;0.30;0.30;;;9.80;99.90;;;;;;5051626;28;20082;-55
2023/12/24 07:05:25;;;;;;;0.20;0.20;;;9.90;99.90;;;;;;5051595;28;20036;-55
2023/12/24 07:07:50;;;;;;;1.70;0.30;;;9.90;99.90;;;;;;5051163;28;20025;-54
2023/12/24 07:10:16;;;;;;;0.50;0.30;;;9.90;99.90;;;;;;5051102;28;20124;-54
2023/12/24 07:12:42;;;;;;;0.30;0.30;;;9.90;99.90;;;;;;5051057;28;20037;-54
2023/12/24 07:15:08;;;;;;;0.67;0.30;;;9.90;99.90;;;;;;5051269;28;20033;-55
2023/12/24 07:17:33;;;;;;;0.53;0.20;;;9.90;99.90;;;;;;5050969;28;20041;-56
2023/12/24 07:20:00;;;;;;;0.37;0.20;;;10.00;99.90;;;;;;5054726;28;20040;-55
2023/12/24 07:22:26;;;;;;;0.10;0.10;;;9.90;99.90;;;;;;5054655;28;20393;-55
2023/12/24 07:24:51;;;;;;;0.53;0.27;;;10.00;99.90;;;;;;5054757;28;20029;-55
2023/12/24 07:27:17;;;;;;;0.20;0.20;;;10.00;99.90;;;;;;5054870;28;20029;-54
2023/12/24 07:29:43;;;;;;;0.20;0.10;;;10.00;99.90;;;;;;5054583;28;20217;-56
2023/12/24 07:32:09;;;;;;;0.10;0.10;;;10.00;99.90;;;;;;5054511;28;20429;-55
2023/12/24 07:34:34;;;;;;;0.63;0.33;;;10.00;99.90;;;;;;5054667;28;20024;-56
2023/12/24 07:37:00;;;;;;;0.27;0.20;;;10.00;99.90;;;;;;5054572;28;20021;-53
2023/12/24 07:39:26;;;;;;;0.43;0.30;;;10.10;99.90;;;;;;5054151;28;20032;-56
2023/12/24 07:41:51;;;;;;;1.07;0.30;;;10.10;99.90;;;;;;5054322;28;20075;-54
2023/12/24 07:44:17;;;;;;;0.40;0.30;;;10.10;99.90;;;;;;5054404;28;20398;-55
2023/12/24 07:46:44;;;;;;;0.80;0.30;;;10.10;99.90;;;;;;5054308;28;20032;-53
2023/12/24 07:49:09;;;;;;;0.30;0.20;;;10.10;99.90;;;;;;5054257;28;20032;-55
2023/12/24 07:51:35;;;;;;;0.60;0.30;;;10.10;99.90;;;;;;5054477;28;20171;-54
2023/12/24 07:54:03;;;;;;;0.77;0.37;;;10.10;99.90;;;;;;5054358;28;20116;-54
2023/12/24 07:56:30;;;;;;;0.50;0.40;;;10.10;99.90;;;;;;5054442;28;20041;-55
2023/12/24 07:58:56;;;;;;;0.30;0.27;;;10.10;99.90;;;;;;5054049;28;20033;-55
2023/12/24 08:01:21;;;;;;;1.20;0.50;;;10.10;99.90;;;;;;5054079;28;20051;-56
2023/12/24 08:03:47;;;;;;;0.70;0.30;;;10.20;99.90;;;;;;5054093;28;20029;-56
2023/12/24 08:06:12;;;;;;;0.50;0.30;;;10.20;99.90;;;;;;5054169;28;20040;-54
2023/12/24 08:08:38;;;;;;;1.27;0.30;;;10.20;99.90;;;;;;5053870;28;20029;-57
2023/12/24 08:11:04;;;;;;;0.80;0.50;;;10.20;99.90;;;;;;5054068;28;20036;-56
2023/12/24 08:13:29;;;;;;;0.40;0.40;;;10.20;99.90;;;;;;5036129;28;20086;-56
2023/12/24 08:15:55;;;;;;;0.77;0.40;;;10.20;99.90;;;;;;5054011;28;20036;-56
2023/12/24 08:18:21;;;;;;;2.07;0.30;;;10.20;99.90;;;;;;5053791;28;20033;-56
2023/12/24 08:20:46;;;;;;;0.57;0.30;;;10.20;99.90;;;;;;5053565;28;20029;-56
2023/12/24 08:23:12;;;;;;;0.63;0.30;;;10.20;99.90;;;;;;5053981;28;20032;-56
2023/12/24 08:25:38;;;;;;;0.33;0.20;;;10.20;99.90;;;;;;5053730;28;20033;-54
2023/12/24 08:28:06;;;;;;;0.57;0.40;;;10.20;99.90;;;;;;5053445;28;20024;-55
2023/12/24 08:30:31;;;;;;;1.07;0.33;;;10.20;99.90;;;;;;5053343;28;20393;-55
2023/12/24 08:32:57;;;;;;;0.57;0.30;;;10.20;99.90;;;;;;5053460;28;20029;-56
2023/12/24 08:35:22;;;;;;;2.10;0.40;;;10.20;99.90;;;;;;5053489;28;20064;-55
2023/12/24 08:37:48;;;;;;;0.67;0.30;;;10.20;99.90;;;;;;5035303;28;20432;-56
2023/12/24 08:40:14;;;;;;;0.33;0.30;;;10.20;99.90;;;;;;5053413;28;20037;-56
2023/12/24 08:42:40;;;;;;;1.17;0.30;;;10.20;99.90;;;;;;5053273;28;20131;-56
2023/12/24 08:45:06;;;;;;;0.33;0.30;;;10.20;99.90;;;;;;5053242;28;20111;-55
2023/12/24 08:47:31;;;;;;;0.70;0.50;;;10.30;99.90;;;;;;5053139;28;20035;-54
2023/12/24 08:49:57;;;;;;;0.67;0.23;;;10.30;99.90;;;;;;5053048;28;20025;-54
2023/12/24 08:52:23;;;;;;;0.40;0.30;;;10.30;99.90;;;;;;5052967;28;20025;-55
2023/12/24 08:54:49;;;;;;;0.83;0.20;;;10.30;99.90;;;;;;5053181;28;20079;-54
2023/12/24 08:57:15;;;;;;;0.20;0.20;;;10.30;99.90;;;;;;5053219;28;20120;-56
2023/12/24 08:59:40;;;;;;;0.13;0.13;;;10.30;99.90;;;;;;5052853;28;20037;-54
2023/12/24 09:02:06;;;;;;;0.30;0.20;;;10.30;99.90;;;;;;5052870;28;20040;-56
2023/12/24 09:04:31;;;;;;;0.60;0.50;;;10.30;99.90;;;;;;5035105;28;20547;-51
2023/12/24 09:06:57;;;;;;;1.63;0.27;;;10.30;99.90;;;;;;5052850;28;20056;-56
2023/12/24 09:09:23;;;;;;;0.30;0.27;;;10.30;99.90;;;;;;5052581;28;20082;-55
2023/12/24 09:11:49;;;;;;;3.80;1.53;;;10.30;99.90;;;;;;5052894;28;20037;-54
2023/12/24 09:14:15;;;;;;;7.50;3.53;;;10.30;99.90;;;;;;5052704;28;20043;-56
2023/12/24 09:16:41;;;;;;;0.97;0.60;;;10.30;99.90;;;;;;5052805;28;20033;-53
2023/12/24 09:19:06;;;;;;;0.73;0.40;;;10.30;99.90;;;;;;5052750;28;20503;-55
2023/12/24 09:21:32;;;;;;;0.27;0.20;;;10.40;99.90;;;;;;5052535;28;20086;-51
2023/12/24 09:23:58;;;;;;;0.20;0.20;;;10.40;99.90;;;;;;5052528;28;20033;-54
2023/12/24 09:26:24;;;;;;;0.20;0.20;;;10.40;99.90;;;;;;5052467;28;20120;-55
2023/12/24 09:28:50;;;;;;;0.63;0.27;;;10.40;99.90;;;;;;5052313;28;20135;-55
2023/12/24 09:31:16;;;;;;;0.67;0.30;;;10.40;99.90;;;;;;5052582;28;20403;-54
2023/12/24 09:33:41;;;;;;;0.97;0.20;;;10.40;99.90;;;;;;5052674;28;20071;-53
2023/12/24 09:36:07;;;;;;;0.83;0.20;;;10.40;99.90;;;;;;5052783;28;20064;-52
2023/12/24 09:38:35;;;;;;;1.07;0.30;;;10.40;99.90;;;;;;5052553;28;20037;-52
2023/12/24 09:41:01;;;;;;;1.53;0.50;;;10.30;99.90;;;;;;5052565;28;20040;-54
2023/12/24 09:43:30;;;;;;;0.93;0.30;;;10.40;99.90;;;;;;5053056;28;20032;-53
2023/12/24 09:45:56;;;;;;;0.45;0.25;;;10.40;99.90;;;;;;5053459;28;20108;-54
2023/12/24 09:48:22;;;;;;;0.20;0.20;;;10.40;99.90;;;;;;5053149;28;20037;-54
2023/12/24 09:50:48;;;;;;;0.57;0.20;;;10.40;99.90;;;;;;5053830;28;20032;-54
2023/12/24 09:53:14;;;;;;;0.20;0.20;;;10.40;99.90;;;;;;5053177;28;20501;-54
2023/12/24 09:55:40;;;;;;;0.30;0.20;;;10.50;99.90;;;;;;5053739;28;20036;-55
2023/12/24 09:58:06;;;;;;;0.70;0.40;;;10.50;99.90;;;;;;5053848;28;20029;-54
2023/12/24 10:00:31;;;;;;;0.20;0.20;;;10.60;99.90;;;;;;5053332;28;20029;-55
2023/12/24 10:02:57;;;;;;;0.83;0.40;;;10.60;99.90;;;;;;5034026;28;20029;-56
2023/12/24 10:05:23;;;;;;;0.20;0.20;;;10.70;99.90;;;;;;5051881;28;20021;-56
2023/12/24 10:07:48;;;;;;;1.97;0.50;;;10.60;99.90;;;;;;5051673;28;20025;-56
2023/12/24 10:10:14;;;;;;;0.20;0.20;;;10.70;99.90;;;;;;5051929;28;20478;-54
2023/12/24 10:12:42;;;;;;;0.80;0.20;;;10.70;99.90;;;;;;5051710;28;20071;-57
2023/12/24 10:15:08;;;;;;;0.50;0.23;;;10.80;99.90;;;;;;5051777;28;20033;-57
2023/12/24 10:17:35;;;;;;;0.13;0.10;;;10.80;99.90;;;;;;5051678;28;20078;-54
2023/12/24 10:20:06;;;;;;;0.53;0.30;;;10.80;99.90;;;;;;5051737;28;20040;-55
2023/12/24 10:22:33;;;;;;;1.40;0.30;;;10.80;99.90;;;;;;5051723;28;20037;-55
2023/12/24 10:25:03;;;;;;;1.13;0.20;;;10.80;99.90;;;;;;5051750;28;20029;-55
2023/12/24 10:27:29;;;;;;;2.00;0.40;;;10.90;99.90;;;;;;5051416;28;20048;-56
2023/12/24 10:30:12;;;;;;;0.20;0.20;;;10.90;99.90;;;;;;5051582;28;20017;-56
2023/12/24 10:32:38;;;;;;;2.43;0.30;;;10.90;99.90;;;;;;5017478;28;20525;-55
2023/12/24 10:35:04;;;;;;;0.33;0.20;;;10.90;99.90;;;;;;5033914;28;20052;-56
2023/12/24 10:37:30;;;;;;;0.40;0.20;;;10.90;99.90;;;;;;5051751;28;20041;-55
2023/12/24 10:40:08;;;;;;;0.20;0.20;;;10.90;99.90;;;;;;5051481;28;20033;-55
2023/12/24 10:42:38;;;;;;;0.65;0.43;;;11.00;99.90;;;;;;5051255;28;20094;-55
2023/12/24 10:45:08;;;;;;;1.13;0.30;;;11.00;99.90;;;;;;5033661;28;20110;-55
2023/12/24 10:47:34;;;;;;;0.20;0.20;;;11.00;99.90;;;;;;5051607;28;20033;-55
2023/12/24 10:50:02;;;;;;;0.83;0.30;;;11.00;99.90;;;;;;5051995;28;20032;-53
2023/12/24 10:52:29;;;;;;;0.47;0.20;;;11.10;99.90;;;;;;5053407;28;20173;-55
2023/12/24 10:54:57;;;;;;;2.30;0.40;;;11.10;99.90;;;;;;5056268;28;20036;-54
2023/12/24 10:57:59;;;;;;;0.43;0.30;;;11.10;99.90;;;;;;5023463;28;20025;-55
2023/12/24 11:00:26;;;;;;;7.87;3.10;;;11.10;99.90;;;;;;5038509;28;20091;-54
2023/12/24 11:02:52;;;;;;;4.40;2.20;;;11.10;99.90;;;;;;5056444;28;20040;-55
2023/12/24 11:05:53;;;;;;;0.80;0.30;;;11.10;99.90;;;;;;5055745;28;20460;-53
2023/12/24 11:08:21;;;;;;;0.40;0.30;;;11.10;99.90;;;;;;4993222;28;20042;-54
2023/12/24 11:11:07;;;;;;;1.38;0.40;;;11.10;99.90;;;;;;5043260;28;20040;-52
2023/12/24 11:13:33;;;;;;;0.70;0.30;;;11.10;99.90;;;;;;5054958;28;20041;-53
2023/12/24 11:16:00;;;;;;;1.20;0.40;;;11.20;99.90;;;;;;5055051;28;20440;-52
2023/12/24 11:18:46;;;;;;;0.47;0.30;;;11.10;99.90;;;;;;5054976;28;20032;-54
2023/12/24 11:21:14;;;;;;;1.80;0.50;;;11.10;99.90;;;;;;5037027;28;20106;-51
2023/12/24 11:23:41;;;;;;;0.50;0.30;;;11.10;99.90;;;;;;5054800;28;20037;-53
2023/12/24 11:26:30;;;;;;;0.83;0.40;;;11.10;99.90;;;;;;5055130;28;20040;-53
2023/12/24 11:28:56;;;;;;;0.75;0.35;;;11.10;99.90;;;;;;5054774;28;20064;-56
2023/12/24 11:31:25;;;;;;;0.67;0.30;;;11.00;99.90;;;;;;5054682;28;20110;-55
2023/12/24 11:33:54;;;;;;;0.40;0.30;;;11.00;99.90;;;;;;5054789;28;20064;-53
2023/12/24 11:36:21;;;;;;;0.88;0.50;;;11.00;99.90;;;;;;5054648;28;20037;-55
2023/12/24 11:38:48;;;;;;;1.70;0.63;;;11.00;99.90;;;;;;5054286;28;20036;-56
2023/12/24 11:41:15;;;;;;;2.53;0.60;;;11.00;99.90;;;;;;5054245;28;20045;-55
2023/12/24 11:43:52;;;;;;;1.37;0.60;;;11.00;99.90;;;;;;5054474;28;20482;-55
2023/12/24 11:46:18;;;;;;;0.87;0.60;;;11.00;99.90;;;;;;5054445;28;20044;-56
2023/12/24 11:48:44;;;;;;;1.23;0.70;;;11.00;99.90;;;;;;5054170;28;20029;-56
2023/12/24 11:51:11;;;;;;;1.03;0.80;;;11.00;99.90;;;;;;5054237;28;20108;-56
2023/12/24 11:53:41;;;;;;;1.93;0.90;;;11.00;99.90;;;;;;5054421;28;20037;-55
2023/12/24 11:56:11;;;;;;;1.80;1.10;;;11.10;99.90;;;;;;5054905;28;20021;-55
2023/12/24 11:58:42;;;;;;;2.67;0.90;;;11.10;99.90;;;;;;5054805;28;20033;-55
2023/12/24 12:01:08;;;;;;;1.33;0.83;;;11.10;99.90;;;;;;5054644;28;20033;-56
2023/12/24 12:03:35;;;;;;;1.83;1.27;;;11.20;99.90;;;;;;5053368;28;20040;-55
2023/12/24 12:06:02;;;;;;;2.80;1.10;;;11.20;99.90;;;;;;5054156;28;20040;-56
2023/12/24 12:08:29;;;;;;;1.20;0.80;;;11.20;99.90;;;;;;5053816;28;20029;-55
2023/12/24 12:10:55;;;;;;;2.10;1.10;;;11.20;99.90;;;;;;5053675;28;20068;-56
2023/12/24 12:13:21;;;;;;;2.60;1.23;;;11.30;99.90;;;;;;5053894;28;20064;-55
2023/12/24 12:15:47;;;;;;;2.47;1.07;;;11.30;99.90;;;;;;5053941;28;20049;-55
2023/12/24 12:18:14;;;;;;;3.27;1.20;;;11.30;99.90;;;;;;5053695;28;20041;-56
2023/12/24 12:20:41;;;;;;;2.73;0.90;;;11.30;99.90;;;;;;5054025;28;20127;-55
2023/12/24 12:23:07;;;;;;;3.93;1.20;;;11.30;99.90;;;;;;5053680;28;20058;-56
2023/12/24 12:25:32;;;;;;;1.47;0.83;;;11.30;99.90;;;;;;5053620;28;20401;-55
2023/12/24 12:27:58;;;;;;;3.07;1.03;;;11.30;99.90;;;;;;5053503;28;20584;-56
2023/12/24 12:30:23;;;;;;;3.23;1.10;;;11.40;99.90;;;;;;5053614;28;20029;-56
2023/12/24 12:32:49;;;;;;;1.60;0.60;;;11.30;99.90;;;;;;5053729;28;20044;-55
2023/12/24 12:35:15;;;;;;;0.60;0.60;;;11.40;99.90;;;;;;5053247;28;20036;-54
2023/12/24 12:37:41;;;;;;;0.83;0.50;;;11.30;99.90;;;;;;5053232;28;20397;-55
2023/12/24 12:40:07;;;;;;;1.40;0.63;;;11.30;99.90;;;;;;5053420;28;20365;-55
2023/12/24 12:42:33;;;;;;;1.70;0.70;;;11.30;99.90;;;;;;5053148;28;20120;-55
2023/12/24 12:44:59;;;;;;;0.90;0.50;;;11.20;99.90;;;;;;5053364;28;20119;-54
2023/12/24 12:47:25;;;;;;;1.90;0.90;;;11.20;99.90;;;;;;5053149;28;20037;-56